sensor_id;sensor_type;location;lat;lon;timestamp;pressure;altitude;pressure_sealevel;temperature;humidity
65227;BME280;51805;49.012;12.104;2023-03-03T00:02:19;97860.78;;;22.08;40.38
65227;BME280;51805;49.012;12.104;2023-03-03T00:04:44;97872.94;;;22.10;40.46
65227;BME280;51805;49.012;12.104;2023-03-03T00:07:10;97872.69;;;22.07;40.60
65227;BME280;51805;49.012;12.104;2023-03-03T00:09:35;97878.13;;;22.02;40.57
65227;BME280;51805;49.012;12.104;2023-03-03T00:12:00;97873.25;;;21.99;40.65
65227;BME280;51805;49.012;12.104;2023-03-03T00:14:30;97877.56;;;22.05;40.65
65227;BME280;51805;49.012;12.104;2023-03-03T00:16:56;97877.03;;;21.98;40.73
65227;BME280;51805;49.012;12.104;2023-03-03T00:19:22;97873.53;;;21.97;40.60
65227;BME280;51805;49.012;12.104;2023-03-03T00:21:48;97870.28;;;22.00;40.63
65227;BME280;51805;49.012;12.104;2023-03-03T00:26:46;97871.94;;;21.91;41.00
65227;BME280;51805;49.012;12.104;2023-03-03T00:31:46;97867.31;;;21.92;40.92
65227;BME280;51805;49.012;12.104;2023-03-03T00:36:42;97881.66;;;21.97;40.72
65227;BME280;51805;49.012;12.104;2023-03-03T00:42:12;97875.50;;;21.87;40.89
65227;BME280;51805;49.012;12.104;2023-03-03T00:44:56;97875.22;;;21.88;40.77
65227;BME280;51805;49.012;12.104;2023-03-03T00:47:23;97874.94;;;21.85;40.94
65227;BME280;51805;49.012;12.104;2023-03-03T00:49:48;97876.31;;;21.82;41.15
65227;BME280;51805;49.012;12.104;2023-03-03T00:52:15;97881.19;;;21.80;41.04
65227;BME280;51805;49.012;12.104;2023-03-03T00:54:40;97873.84;;;21.86;40.86
65227;BME280;51805;49.012;12.104;2023-03-03T00:57:05;97868.22;;;21.82;41.09
65227;BME280;51805;49.012;12.104;2023-03-03T00:59:30;97878.75;;;21.79;41.16
65227;BME280;51805;49.012;12.104;2023-03-03T01:01:56;97877.16;;;21.78;41.21
65227;BME280;51805;49.012;12.104;2023-03-03T01:04:21;97870.91;;;21.77;41.23
65227;BME280;51805;49.012;12.104;2023-03-03T01:06:46;97870.91;;;21.77;41.20
65227;BME280;51805;49.012;12.104;2023-03-03T01:09:11;97871.75;;;21.78;41.18
65227;BME280;51805;49.012;12.104;2023-03-03T01:11:36;97870.91;;;21.77;41.21
65227;BME280;51805;49.012;12.104;2023-03-03T01:14:01;97873.63;;;21.77;41.18
65227;BME280;51805;49.012;12.104;2023-03-03T01:16:26;97866.03;;;21.74;41.22
65227;BME280;51805;49.012;12.104;2023-03-03T01:18:52;97861.44;;;21.75;41.17
65227;BME280;51805;49.012;12.104;2023-03-03T01:21:17;97866.03;;;21.74;41.30
65227;BME280;51805;49.012;12.104;2023-03-03T01:23:42;97866.31;;;21.73;41.14
65227;BME280;51805;49.012;12.104;2023-03-03T01:26:08;97859.81;;;21.74;41.18
65227;BME280;51805;49.012;12.104;2023-03-03T01:28:33;97868.19;;;21.72;41.25
65227;BME280;51805;49.012;12.104;2023-03-03T01:31:02;97860.63;;;21.69;41.40
65227;BME280;51805;49.012;12.104;2023-03-03T01:33:27;97870.06;;;21.72;41.33
65227;BME280;51805;49.012;12.104;2023-03-03T01:35:52;97859.81;;;21.69;41.17
65227;BME280;51805;49.012;12.104;2023-03-03T01:38:17;97860.91;;;21.68;41.33
65227;BME280;51805;49.012;12.104;2023-03-03T01:40:48;97860.09;;;21.67;41.41
65227;BME280;51805;49.012;12.104;2023-03-03T01:43:15;97866.31;;;21.68;41.27
65227;BME280;51805;49.012;12.104;2023-03-03T01:50:45;97866.59;;;21.66;41.28
65227;BME280;51805;49.012;12.104;2023-03-03T01:53:14;97858.47;;;21.66;41.29
65227;BME280;51805;49.012;12.104;2023-03-03T01:55:42;97852.81;;;21.63;41.42
65227;BME280;51805;49.012;12.104;2023-03-03T01:58:10;97866.59;;;21.61;41.39
65227;BME280;51805;49.012;12.104;2023-03-03T02:00:37;97857.44;;;21.62;41.34
65227;BME280;51805;49.012;12.104;2023-03-03T02:03:03;97857.44;;;21.62;41.33
65227;BME280;51805;49.012;12.104;2023-03-03T02:05:28;97865.81;;;21.61;41.48
65227;BME280;51805;49.012;12.104;2023-03-03T02:07:54;97868.78;;;21.59;41.44
65227;BME280;51805;49.012;12.104;2023-03-03T02:10:19;97854.47;;;21.59;41.50
65227;BME280;51805;49.012;12.104;2023-03-03T02:12:48;97865.53;;;21.57;41.60
65227;BME280;51805;49.012;12.104;2023-03-03T02:15:17;97866.63;;;21.56;41.65
65227;BME280;51805;49.012;12.104;2023-03-03T02:17:43;97863.91;;;21.56;41.64
65227;BME280;51805;49.012;12.104;2023-03-03T02:25:05;97861.75;;;21.53;41.48
65227;BME280;51805;49.012;12.104;2023-03-03T02:27:32;97867.16;;;21.53;41.65
65227;BME280;51805;49.012;12.104;2023-03-03T02:29:57;97867.44;;;21.52;41.66
65227;BME280;51805;49.012;12.104;2023-03-03T02:32:31;97873.66;;;21.52;41.53
65227;BME280;51805;49.012;12.104;2023-03-03T02:34:56;97875.81;;;21.50;41.55
65227;BME280;51805;49.012;12.104;2023-03-03T02:37:21;97874.22;;;21.49;41.73
65227;BME280;51805;49.012;12.104;2023-03-03T02:39:46;97875.31;;;21.48;41.66
65227;BME280;51805;49.012;12.104;2023-03-03T02:42:14;97870.97;;;21.47;41.64
65227;BME280;51805;49.012;12.104;2023-03-03T02:44:41;97871.78;;;21.48;41.71
65227;BME280;51805;49.012;12.104;2023-03-03T02:47:06;97870.97;;;21.47;41.69
65227;BME280;51805;49.012;12.104;2023-03-03T02:49:33;97872.34;;;21.44;41.69
65227;BME280;51805;49.012;12.104;2023-03-03T02:51:59;97878.28;;;21.47;41.88
65227;BME280;51805;49.012;12.104;2023-03-03T02:54:26;97872.06;;;21.46;41.78
65227;BME280;51805;49.012;12.104;2023-03-03T02:56:52;97870.44;;;21.45;41.97
65227;BME280;51805;49.012;12.104;2023-03-03T02:59:17;97868.31;;;21.42;42.05
65227;BME280;51805;49.012;12.104;2023-03-03T03:01:42;97872.63;;;21.43;42.15
65227;BME280;51805;49.012;12.104;2023-03-03T03:06:33;97879.13;;;21.42;42.18
65227;BME280;51805;49.012;12.104;2023-03-03T03:08:58;97881.81;;;21.42;42.23
65227;BME280;51805;49.012;12.104;2023-03-03T03:11:23;97879.91;;;21.42;42.35
65227;BME280;51805;49.012;12.104;2023-03-03T03:19:16;97877.47;;;21.41;42.51
65227;BME280;51805;49.012;12.104;2023-03-03T03:21:41;97873.44;;;21.38;42.66
65227;BME280;51805;49.012;12.104;2023-03-03T03:24:06;97880.72;;;21.38;42.63
65227;BME280;51805;49.012;12.104;2023-03-03T03:26:32;97869.38;;;21.36;42.60
65227;BME280;51805;49.012;12.104;2023-03-03T03:28:57;97868.31;;;21.37;42.77
65227;BME280;51805;49.012;12.104;2023-03-03T03:31:25;97868.56;;;21.35;42.79
65227;BME280;51805;49.012;12.104;2023-03-03T03:33:50;97863.97;;;21.36;42.95
65227;BME280;51805;49.012;12.104;2023-03-03T03:36:16;97861.53;;;21.34;42.96
65227;BME280;51805;49.012;12.104;2023-03-03T03:38:41;97866.94;;;21.34;43.03
65227;BME280;51805;49.012;12.104;2023-03-03T03:41:06;97872.34;;;21.34;43.04
65227;BME280;51805;49.012;12.104;2023-03-03T03:43:31;97871.56;;;21.34;43.14
65227;BME280;51805;49.012;12.104;2023-03-03T03:45:56;97873.72;;;21.32;42.87
65227;BME280;51805;49.012;12.104;2023-03-03T03:48:22;97888.03;;;21.32;42.89
65227;BME280;51805;49.012;12.104;2023-03-03T03:50:47;97879.13;;;21.32;42.95
65227;BME280;51805;49.012;12.104;2023-03-03T03:53:12;97875.06;;;21.29;43.03
65227;BME280;51805;49.012;12.104;2023-03-03T03:55:37;97876.97;;;21.29;42.86
65227;BME280;51805;49.012;12.104;2023-03-03T03:58:03;97880.47;;;21.29;42.92
65227;BME280;51805;49.012;12.104;2023-03-03T04:00:28;97876.69;;;21.30;42.87
65227;BME280;51805;49.012;12.104;2023-03-03T04:02:53;97883.97;;;21.30;42.92
65227;BME280;51805;49.012;12.104;2023-03-03T04:05:18;97881.56;;;21.28;42.75
65227;BME280;51805;49.012;12.104;2023-03-03T04:07:43;97881.81;;;21.27;42.96
65227;BME280;51805;49.012;12.104;2023-03-03T04:10:08;97886.72;;;21.25;42.93
65227;BME280;51805;49.012;12.104;2023-03-03T04:12:34;97880.75;;;21.23;42.84
65227;BME280;51805;49.012;12.104;2023-03-03T04:14:59;97889.41;;;21.25;42.84
65227;BME280;51805;49.012;12.104;2023-03-03T04:17:24;97889.97;;;21.22;42.82
65227;BME280;51805;49.012;12.104;2023-03-03T04:19:51;97895.88;;;21.24;42.97
65227;BME280;51805;49.012;12.104;2023-03-03T04:22:16;97891.56;;;21.23;42.87
65227;BME280;51805;49.012;12.104;2023-03-03T04:24:41;97891.56;;;21.23;42.79
65227;BME280;51805;49.012;12.104;2023-03-03T04:27:07;97887.25;;;21.22;42.90
65227;BME280;51805;49.012;12.104;2023-03-03T04:29:32;97892.13;;;21.20;42.86
65227;BME280;51805;49.012;12.104;2023-03-03T04:31:57;97889.13;;;21.21;42.82
65227;BME280;51805;49.012;12.104;2023-03-03T04:34:22;97899.13;;;21.21;42.88
65227;BME280;51805;49.012;12.104;2023-03-03T04:36:47;97888.59;;;21.19;42.82
65227;BME280;51805;49.012;12.104;2023-03-03T04:39:12;97892.94;;;21.20;42.80
65227;BME280;51805;49.012;12.104;2023-03-03T04:41:37;97893.47;;;21.17;42.95
65227;BME280;51805;49.012;12.104;2023-03-03T04:44:03;97903.75;;;21.15;42.96
65227;BME280;51805;49.012;12.104;2023-03-03T04:46:28;97894.53;;;21.16;42.76
65227;BME280;51805;49.012;12.104;2023-03-03T04:48:53;97895.63;;;21.15;42.87
65227;BME280;51805;49.012;12.104;2023-03-03T04:51:18;97901.31;;;21.14;43.27
65227;BME280;51805;49.012;12.104;2023-03-03T04:53:43;97903.19;;;21.13;43.54
65227;BME280;51805;49.012;12.104;2023-03-03T04:56:08;97898.59;;;21.14;43.26
65227;BME280;51805;49.012;12.104;2023-03-03T04:58:33;97910.47;;;21.13;43.47
65227;BME280;51805;49.012;12.104;2023-03-03T05:00:59;97909.41;;;21.14;43.53
65227;BME280;51805;49.012;12.104;2023-03-03T05:03:24;97909.69;;;21.12;43.61
65227;BME280;51805;49.012;12.104;2023-03-03T05:05:49;97916.44;;;21.15;43.58
65227;BME280;51805;49.012;12.104;2023-03-03T05:08:14;97915.63;;;21.14;43.50
65227;BME280;51805;49.012;12.104;2023-03-03T05:10:39;97919.41;;;21.13;43.72
65227;BME280;51805;49.012;12.104;2023-03-03T05:13:05;97922.66;;;21.10;43.81
65227;BME280;51805;49.012;12.104;2023-03-03T05:15:30;97920.78;;;21.11;43.61
65227;BME280;51805;49.012;12.104;2023-03-03T05:17:55;97917.78;;;21.12;43.64
65227;BME280;51805;49.012;12.104;2023-03-03T05:20:21;97916.97;;;21.12;43.78
65227;BME280;51805;49.012;12.104;2023-03-03T05:22:46;97918.59;;;21.13;43.60
65227;BME280;51805;49.012;12.104;2023-03-03T05:25:11;97922.38;;;21.12;43.69
65227;BME280;51805;49.012;12.104;2023-03-03T05:27:36;97918.84;;;21.11;43.80
65227;BME280;51805;49.012;12.104;2023-03-03T05:30:01;97916.97;;;21.12;43.63
65227;BME280;51805;49.012;12.104;2023-03-03T05:32:26;97926.69;;;21.13;43.63
65227;BME280;51805;49.012;12.104;2023-03-03T05:34:51;97927.78;;;21.12;43.71
65227;BME280;51805;49.012;12.104;2023-03-03T05:37:16;97932.09;;;21.13;43.86
65227;BME280;51805;49.012;12.104;2023-03-03T05:39:42;97935.63;;;21.13;43.75
65227;BME280;51805;49.012;12.104;2023-03-03T05:42:07;97938.06;;;21.15;43.60
65227;BME280;51805;49.012;12.104;2023-03-03T05:44:32;97928.34;;;21.14;43.57
65227;BME280;51805;49.012;12.104;2023-03-03T05:46:57;97938.06;;;21.15;43.65
65227;BME280;51805;49.012;12.104;2023-03-03T05:49:23;97935.09;;;21.16;43.63
65227;BME280;51805;49.012;12.104;2023-03-03T05:51:48;97937.50;;;21.18;43.41
65227;BME280;51805;49.012;12.104;2023-03-03T05:54:13;97937.50;;;21.18;43.59
65227;BME280;51805;49.012;12.104;2023-03-03T05:56:38;97946.16;;;21.20;43.38
65227;BME280;51805;49.012;12.104;2023-03-03T05:59:04;97943.19;;;21.21;43.41
65227;BME280;51805;49.012;12.104;2023-03-03T06:01:29;97940.22;;;21.23;43.48
65227;BME280;51805;49.012;12.104;2023-03-03T06:03:54;97948.31;;;21.23;43.29
65227;BME280;51805;49.012;12.104;2023-03-03T06:06:19;97956.97;;;21.25;43.24
65227;BME280;51805;49.012;12.104;2023-03-03T06:08:44;97948.06;;;21.24;43.17
65227;BME280;51805;49.012;12.104;2023-03-03T06:11:10;97951.81;;;21.28;43.29
65227;BME280;51805;49.012;12.104;2023-03-03T06:13:35;97954.81;;;21.32;43.17
65227;BME280;51805;49.012;12.104;2023-03-03T06:16:00;97953.72;;;21.33;43.24
65227;BME280;51805;49.012;12.104;2023-03-03T06:18:25;97958.56;;;21.36;43.12
65227;BME280;51805;49.012;12.104;2023-03-03T06:20:53;97954.25;;;21.35;42.95
65227;BME280;51805;49.012;12.104;2023-03-03T06:23:19;97954.25;;;21.35;43.00
65227;BME280;51805;49.012;12.104;2023-03-03T06:25:44;97959.94;;;21.38;43.08
65227;BME280;51805;49.012;12.104;2023-03-03T06:28:12;97956.97;;;21.40;43.08
65227;BME280;51805;49.012;12.104;2023-03-03T06:30:38;97957.78;;;21.40;42.92
65227;BME280;51805;49.012;12.104;2023-03-03T06:33:03;97972.66;;;21.43;42.93
65227;BME280;51805;49.012;12.104;2023-03-03T06:35:28;97971.56;;;21.44;42.90
65227;BME280;51805;49.012;12.104;2023-03-03T06:37:53;97968.31;;;21.47;42.75
65227;BME280;51805;49.012;12.104;2023-03-03T06:40:19;97975.34;;;21.48;42.86
65227;BME280;51805;49.012;12.104;2023-03-03T06:42:44;97973.16;;;21.50;42.92
65227;BME280;51805;49.012;12.104;2023-03-03T06:45:09;97977.75;;;21.55;42.65
65227;BME280;51805;49.012;12.104;2023-03-03T06:47:34;97973.72;;;21.57;42.78
65227;BME280;51805;49.012;12.104;2023-03-03T06:49:59;97978.59;;;21.60;42.86
65227;BME280;51805;49.012;12.104;2023-03-03T06:52:25;97984.81;;;21.61;42.76
65227;BME280;51805;49.012;12.104;2023-03-03T06:54:58;97996.41;;;21.61;42.80
65227;BME280;51805;49.012;12.104;2023-03-03T06:57:25;98002.91;;;21.65;42.56
65227;BME280;51805;49.012;12.104;2023-03-03T06:59:52;97999.13;;;21.66;42.58
65227;BME280;51805;49.012;12.104;2023-03-03T07:02:17;97999.41;;;21.70;42.56
65227;BME280;51805;49.012;12.104;2023-03-03T07:04:43;98001.28;;;21.69;42.54
65227;BME280;51805;49.012;12.104;2023-03-03T07:07:18;98009.94;;;21.76;42.21
65227;BME280;51805;49.012;12.104;2023-03-03T07:09:44;98009.44;;;21.79;42.18
65227;BME280;51805;49.012;12.104;2023-03-03T07:12:12;98012.13;;;21.79;42.30
65227;BME280;51805;49.012;12.104;2023-03-03T07:14:43;98018.88;;;21.82;42.12
65227;BME280;51805;49.012;12.104;2023-03-03T07:17:10;98019.16;;;21.85;42.23
65227;BME280;51805;49.012;12.104;2023-03-03T07:19:39;98012.66;;;21.86;42.29
65227;BME280;51805;49.012;12.104;2023-03-03T07:22:14;98021.31;;;21.88;42.00
65227;BME280;51805;49.012;12.104;2023-03-03T07:24:40;98022.91;;;21.89;42.19
65227;BME280;51805;49.012;12.104;2023-03-03T07:27:10;98027.78;;;21.92;42.07
65227;BME280;51805;49.012;12.104;2023-03-03T07:29:36;98020.72;;;21.96;41.88
65227;BME280;51805;49.012;12.104;2023-03-03T07:32:01;98023.44;;;22.01;41.89
65227;BME280;51805;49.012;12.104;2023-03-03T07:34:36;98021.53;;;22.07;41.79
65227;BME280;51805;49.012;12.104;2023-03-03T07:37:03;98014.50;;;22.06;42.46
65227;BME280;51805;49.012;12.104;2023-03-03T07:39:34;98018.53;;;22.13;42.61
65227;BME280;51805;49.012;12.104;2023-03-03T07:42:17;98018.50;;;22.18;42.63
65227;BME280;51805;49.012;12.104;2023-03-03T07:44:44;98019.59;;;22.22;42.93
65227;BME280;51805;49.012;12.104;2023-03-03T07:47:17;98023.91;;;22.23;42.96
65227;BME280;51805;49.012;12.104;2023-03-03T07:49:43;98019.06;;;22.25;42.97
65227;BME280;51805;49.012;12.104;2023-03-03T07:54:43;98036.34;;;22.29;44.15
65227;BME280;51805;49.012;12.104;2023-03-03T07:57:22;98039.06;;;22.29;45.16
65227;BME280;51805;49.012;12.104;2023-03-03T07:59:49;98042.88;;;22.28;45.02
65227;BME280;51805;49.012;12.104;2023-03-03T08:02:26;98043.38;;;22.30;44.57
65227;BME280;51805;49.012;12.104;2023-03-03T08:04:53;98050.16;;;22.33;44.89
65227;BME280;51805;49.012;12.104;2023-03-03T08:07:20;98047.69;;;22.36;44.71
65227;BME280;51805;49.012;12.104;2023-03-03T08:14:45;98043.38;;;22.40;44.78
65227;BME280;51805;49.012;12.104;2023-03-03T08:17:16;98046.63;;;22.42;44.80
65227;BME280;51805;49.012;12.104;2023-03-03T08:19:43;98045.78;;;22.42;44.86
65227;BME280;51805;49.012;12.104;2023-03-03T08:22:14;98039.28;;;22.43;44.82
65227;BME280;51805;49.012;12.104;2023-03-03T08:24:40;98042.53;;;22.45;44.79
65227;BME280;51805;49.012;12.104;2023-03-03T08:27:05;98041.97;;;22.48;44.83
65227;BME280;51805;49.012;12.104;2023-03-03T08:29:30;98043.59;;;22.49;44.80
65227;BME280;51805;49.012;12.104;2023-03-03T08:31:55;98047.13;;;22.49;44.48
65227;BME280;51805;49.012;12.104;2023-03-03T08:34:20;98048.19;;;22.53;44.63
65227;BME280;51805;49.012;12.104;2023-03-03T08:36:45;98057.94;;;22.59;44.60
65227;BME280;51805;49.012;12.104;2023-03-03T08:39:10;98055.22;;;22.59;44.43
65227;BME280;51805;49.012;12.104;2023-03-03T08:41:35;98064.44;;;22.63;44.48
65227;BME280;51805;49.012;12.104;2023-03-03T08:44:01;98059.28;;;22.62;44.41
65227;BME280;51805;49.012;12.104;2023-03-03T08:46:26;98063.59;;;22.63;44.29
65227;BME280;51805;49.012;12.104;2023-03-03T08:48:51;98059.00;;;22.63;44.27
65227;BME280;51805;49.012;12.104;2023-03-03T08:51:16;98056.84;;;22.65;44.50
65227;BME280;51805;49.012;12.104;2023-03-03T08:53:41;98072.53;;;22.68;44.14
65227;BME280;51805;49.012;12.104;2023-03-03T08:56:06;98082.00;;;22.76;44.09
65227;BME280;51805;49.012;12.104;2023-03-03T08:58:31;98085.50;;;22.76;44.02
65227;BME280;51805;49.012;12.104;2023-03-03T09:00:57;98080.06;;;22.76;44.11
65227;BME280;51805;49.012;12.104;2023-03-03T09:03:22;98083.03;;;22.80;43.90
65227;BME280;51805;49.012;12.104;2023-03-03T09:05:47;98075.19;;;22.83;43.88
65227;BME280;51805;49.012;12.104;2023-03-03T09:08:12;98081.41;;;22.84;43.95
65227;BME280;51805;49.012;12.104;2023-03-03T09:10:37;98085.75;;;22.85;43.91
65227;BME280;51805;49.012;12.104;2023-03-03T09:13:06;98090.63;;;22.83;43.92
65227;BME280;51805;49.012;12.104;2023-03-03T09:15:36;98090.34;;;22.84;44.01
65227;BME280;51805;49.012;12.104;2023-03-03T09:20:56;98080.88;;;22.87;43.79
65227;BME280;51805;49.012;12.104;2023-03-03T09:23:35;98073.25;;;22.89;43.78
65227;BME280;51805;49.012;12.104;2023-03-03T09:28:44;98077.31;;;22.91;43.74
65227;BME280;51805;49.012;12.104;2023-03-03T09:33:53;98081.06;;;22.95;43.67
65227;BME280;51805;49.012;12.104;2023-03-03T09:38:44;98078.06;;;23.02;43.35
65227;BME280;51805;49.012;12.104;2023-03-03T09:46:45;98074.50;;;23.07;43.19
65227;BME280;51805;49.012;12.104;2023-03-03T09:49:21;98070.97;;;23.06;43.16
65227;BME280;51805;49.012;12.104;2023-03-03T09:54:39;98069.63;;;23.09;43.04
65227;BME280;51805;49.012;12.104;2023-03-03T10:02:14;98078.81;;;23.13;43.08
65227;BME280;51805;49.012;12.104;2023-03-03T10:07:22;98072.84;;;23.11;42.91
65227;BME280;51805;49.012;12.104;2023-03-03T10:12:46;98081.50;;;23.18;42.83
65227;BME280;51805;49.012;12.104;2023-03-03T10:20:41;98085.28;;;23.27;42.65
65227;BME280;51805;49.012;12.104;2023-03-03T10:23:18;98083.91;;;23.24;42.65
65227;BME280;51805;49.012;12.104;2023-03-03T10:25:54;98091.22;;;23.24;42.71
65227;BME280;51805;49.012;12.104;2023-03-03T10:31:11;98080.66;;;23.27;42.61
65227;BME280;51805;49.012;12.104;2023-03-03T10:36:14;98083.09;;;23.24;42.74
65227;BME280;51805;49.012;12.104;2023-03-03T10:38:45;98091.78;;;23.21;42.84
65227;BME280;51805;49.012;12.104;2023-03-03T10:41:23;98082.03;;;23.25;42.75
65227;BME280;51805;49.012;12.104;2023-03-03T10:43:56;98076.59;;;23.25;42.80
65227;BME280;51805;49.012;12.104;2023-03-03T10:46:33;98074.94;;;23.24;42.84
65227;BME280;51805;49.012;12.104;2023-03-03T10:56:49;98074.44;;;23.27;42.72
65227;BME280;51805;49.012;12.104;2023-03-03T11:01:57;98065.47;;;23.26;42.91
65227;BME280;51805;49.012;12.104;2023-03-03T11:07:18;98063.84;;;23.20;42.88
65227;BME280;51805;49.012;12.104;2023-03-03T11:12:35;98060.59;;;23.18;42.88
65227;BME280;51805;49.012;12.104;2023-03-03T11:20:32;98056.28;;;23.17;42.70
65227;BME280;51805;49.012;12.104;2023-03-03T11:25:45;98057.38;;;23.16;42.78
65227;BME280;51805;49.012;12.104;2023-03-03T11:30:46;98066.31;;;23.17;42.60
65227;BME280;51805;49.012;12.104;2023-03-03T11:33:17;98061.97;;;23.16;42.56
65227;BME280;51805;49.012;12.104;2023-03-03T11:35:50;98058.72;;;23.14;42.62
65227;BME280;51805;49.012;12.104;2023-03-03T11:40:51;98050.59;;;23.14;42.57
65227;BME280;51805;49.012;12.104;2023-03-03T11:43:29;98049.53;;;23.15;42.53
65227;BME280;51805;49.012;12.104;2023-03-03T11:45:55;98042.25;;;23.10;42.57
65227;BME280;51805;49.012;12.104;2023-03-03T11:49:05;98039.25;;;23.12;42.37
65227;BME280;51805;49.012;12.104;2023-03-03T11:53:41;98039.25;;;23.12;42.38
65227;BME280;51805;49.012;12.104;2023-03-03T11:56:16;98033.28;;;23.10;42.46
65227;BME280;51805;49.012;12.104;2023-03-03T11:58:48;98038.69;;;23.15;42.43
65227;BME280;51805;49.012;12.104;2023-03-03T12:03:53;98039.72;;;23.19;42.27
65227;BME280;51805;49.012;12.104;2023-03-03T12:06:27;98032.41;;;23.19;42.28
65227;BME280;51805;49.012;12.104;2023-03-03T12:22:12;98023.72;;;23.22;43.15
65227;BME280;51805;49.012;12.104;2023-03-03T12:25:00;98019.13;;;23.23;43.46
65227;BME280;51805;49.012;12.104;2023-03-03T12:30:12;98017.19;;;23.23;43.72
65227;BME280;51805;49.012;12.104;2023-03-03T12:41:12;98000.38;;;23.26;43.68
65227;BME280;51805;49.012;12.104;2023-03-03T12:46:06;98003.91;;;23.27;43.76
65227;BME280;51805;49.012;12.104;2023-03-03T12:48:43;97994.97;;;23.26;44.05
65227;BME280;51805;49.012;12.104;2023-03-03T12:56:21;97988.69;;;23.31;44.11
65227;BME280;51805;49.012;12.104;2023-03-03T13:01:26;97981.09;;;23.33;44.15
65227;BME280;51805;49.012;12.104;2023-03-03T13:06:27;97982.69;;;23.34;44.21
65227;BME280;51805;49.012;12.104;2023-03-03T13:11:26;97976.72;;;23.37;44.37
65227;BME280;51805;49.012;12.104;2023-03-03T13:13:58;97971.28;;;23.37;44.37
65227;BME280;51805;49.012;12.104;2023-03-03T13:16:29;97976.72;;;23.37;44.32
65227;BME280;51805;49.012;12.104;2023-03-03T13:19:07;97972.09;;;23.37;44.51
65227;BME280;51805;49.012;12.104;2023-03-03T13:21:41;97979.13;;;23.38;44.37
65227;BME280;51805;49.012;12.104;2023-03-03T13:24:18;97970.72;;;23.40;44.42
65227;BME280;51805;49.012;12.104;2023-03-03T13:26:58;97969.09;;;23.39;44.63
65227;BME280;51805;49.012;12.104;2023-03-03T13:29:27;97965.28;;;23.40;44.60
65227;BME280;51805;49.012;12.104;2023-03-03T13:31:55;97967.50;;;23.38;44.56
65227;BME280;51805;49.012;12.104;2023-03-03T13:37:07;97970.22;;;23.38;44.35
65227;BME280;51805;49.012;12.104;2023-03-03T13:39:41;97978.34;;;23.38;44.33
65227;BME280;51805;49.012;12.104;2023-03-03T13:42:20;97976.72;;;23.37;44.11
65227;BME280;51805;49.012;12.104;2023-03-03T13:44:48;97982.66;;;23.39;44.10
65227;BME280;51805;49.012;12.104;2023-03-03T13:52:19;97970.19;;;23.43;44.11
65227;BME280;51805;49.012;12.104;2023-03-03T13:57:22;97974.50;;;23.44;43.97
65227;BME280;51805;49.012;12.104;2023-03-03T14:05:03;97965.22;;;23.50;43.97
65227;BME280;51805;49.012;12.104;2023-03-03T14:07:41;97965.22;;;23.50;44.05
65227;BME280;51805;49.012;12.104;2023-03-03T14:20:23;97959.22;;;23.53;43.99
65227;BME280;51805;49.012;12.104;2023-03-03T14:22:52;97955.94;;;23.56;44.05
65227;BME280;51805;49.012;12.104;2023-03-03T14:25:18;97953.22;;;23.56;44.05
65227;BME280;51805;49.012;12.104;2023-03-03T14:35:34;97945.63;;;23.58;44.05
65227;BME280;51805;49.012;12.104;2023-03-03T14:40:37;97937.97;;;23.60;44.12
65227;BME280;51805;49.012;12.104;2023-03-03T14:43:18;97933.38;;;23.60;44.12
65227;BME280;51805;49.012;12.104;2023-03-03T14:45:44;97932.53;;;23.60;44.23
65227;BME280;51805;49.012;12.104;2023-03-03T14:50:38;97919.50;;;23.62;44.29
65227;BME280;51805;49.012;12.104;2023-03-03T14:53:12;97924.94;;;23.62;44.31
65227;BME280;51805;49.012;12.104;2023-03-03T14:55:40;97923.34;;;23.61;44.36
65227;BME280;51805;49.012;12.104;2023-03-03T14:58:24;97915.72;;;23.63;44.34
65227;BME280;51805;49.012;12.104;2023-03-03T15:00:50;97911.91;;;23.64;44.42
65227;BME280;51805;49.012;12.104;2023-03-03T15:03:30;97918.94;;;23.65;44.44
65227;BME280;51805;49.012;12.104;2023-03-03T15:05:55;97913.50;;;23.65;44.40
65227;BME280;51805;49.012;12.104;2023-03-03T15:08:30;97909.72;;;23.66;44.40
65227;BME280;51805;49.012;12.104;2023-03-03T15:10:57;97908.09;;;23.65;44.42
65227;BME280;51805;49.012;12.104;2023-03-03T15:13:35;97911.34;;;23.67;44.48
65227;BME280;51805;49.012;12.104;2023-03-03T15:16:03;97904.31;;;23.66;44.47
65227;BME280;51805;49.012;12.104;2023-03-03T15:18:30;97914.03;;;23.67;44.38
65227;BME280;51805;49.012;12.104;2023-03-03T15:21:15;97900.47;;;23.67;44.45
65227;BME280;51805;49.012;12.104;2023-03-03T15:23:48;97914.03;;;23.67;44.52
65227;BME280;51805;49.012;12.104;2023-03-03T15:26:28;97904.78;;;23.68;44.43
65227;BME280;51805;49.012;12.104;2023-03-03T15:36:44;97912.94;;;23.68;44.34
65227;BME280;51805;49.012;12.104;2023-03-03T15:39:15;97911.34;;;23.67;44.47
65227;BME280;51805;49.012;12.104;2023-03-03T15:41:43;97908.63;;;23.67;44.43
65227;BME280;51805;49.012;12.104;2023-03-03T15:44:11;97917.03;;;23.65;44.53
65227;BME280;51805;49.012;12.104;2023-03-03T15:49:15;97920.56;;;23.66;44.52
65227;BME280;51805;49.012;12.104;2023-03-03T15:54:26;97923.00;;;23.67;44.44
65227;BME280;51805;49.012;12.104;2023-03-03T15:56:57;97918.66;;;23.66;44.43
65227;BME280;51805;49.012;12.104;2023-03-03T15:59:57;97903.81;;;23.59;44.42
65227;BME280;51805;49.012;12.104;2023-03-03T16:02:22;97917.34;;;23.64;44.45
65227;BME280;51805;49.012;12.104;2023-03-03T16:05:04;97919.22;;;23.63;44.52
65227;BME280;51805;49.012;12.104;2023-03-03T16:30:51;97942.53;;;23.41;44.54
65227;BME280;51805;49.012;12.104;2023-03-03T16:33:21;97948.22;;;23.39;44.65
65227;BME280;51805;49.012;12.104;2023-03-03T16:36:12;97950.41;;;23.37;44.61
65227;BME280;51805;49.012;12.104;2023-03-03T16:38:37;97943.66;;;23.35;44.52
65227;BME280;51805;49.012;12.104;2023-03-03T16:41:05;97954.78;;;23.33;44.57